Time;durP1;ratioP1;P1;durP2;ratioP2;P2;SDS_P1;SDS_P2;PMS_P1;PMS_P2;Temp;Humidity;BMP_temperature;BMP_pressure;BME280_temperature;BME280_humidity;BME280_pressure;Samples;Min_cycle;Max_cycle;Signal;HPM_P1;HPM_P2
2021/01/14 00:00:34;;;;;;;8.60;5.22;;;0.20;97.30;;;;;;5004276;28;20049;-73
2021/01/14 00:03:11;;;;;;;15.82;7.90;;;0.20;97.30;;;;;;5009619;28;20385;-73
2021/01/14 00:05:38;;;;;;;18.70;10.95;;;0.20;97.50;;;;;;5011515;28;20026;-73
2021/01/14 00:08:05;;;;;;;18.30;9.60;;;0.00;97.90;;;;;;5012486;28;20037;-73
2021/01/14 00:10:30;;;;;;;12.63;6.78;;;-0.10;98.20;;;;;;4993286;28;20046;-72
2021/01/14 00:12:56;;;;;;;8.85;5.40;;;-0.30;98.30;;;;;;4999587;28;20558;-73
2021/01/14 00:15:22;;;;;;;23.77;14.02;;;-0.30;98.30;;;;;;5006042;28;20057;-72
2021/01/14 00:17:48;;;;;;;14.68;7.15;;;-0.40;98.50;;;;;;4994005;28;20477;-72
2021/01/14 00:20:16;;;;;;;15.05;7.80;;;-0.60;99.20;;;;;;5012907;28;20108;-72
2021/01/14 00:22:43;;;;;;;12.82;6.72;;;-0.60;99.10;;;;;;5011733;28;20104;-72
2021/01/14 00:25:10;;;;;;;9.95;4.65;;;-0.70;99.30;;;;;;5011459;28;20088;-72
2021/01/14 00:27:37;;;;;;;12.63;6.03;;;-0.70;99.30;;;;;;5011900;28;20076;-72
2021/01/14 00:30:08;;;;;;;18.77;10.05;;;-0.50;99.00;;;;;;5010917;28;20508;-73
2021/01/14 00:32:33;;;;;;;10.30;6.70;;;-0.60;99.50;;;;;;5011528;28;20070;-73
2021/01/14 00:34:59;;;;;;;19.52;11.02;;;-0.80;99.70;;;;;;5010818;28;20065;-72
2021/01/14 00:40:09;;;;;;;11.30;5.55;;;-0.70;99.50;;;;;;5005461;28;20040;-72
2021/01/14 00:42:35;;;;;;;13.90;8.60;;;-0.60;99.20;;;;;;4993468;28;20031;-72
2021/01/14 00:45:00;;;;;;;9.77;5.70;;;-0.80;99.40;;;;;;5011615;28;20041;-72
2021/01/14 00:47:26;;;;;;;11.60;5.68;;;-0.90;99.90;;;;;;5011632;28;20021;-72
2021/01/14 00:49:52;;;;;;;24.05;12.98;;;-0.80;99.90;;;;;;5011581;28;20029;-72
2021/01/14 00:52:18;;;;;;;9.98;5.85;;;-0.80;99.90;;;;;;4992390;28;20181;-72
2021/01/14 00:54:44;;;;;;;10.57;5.60;;;-0.80;99.90;;;;;;5008777;28;20030;-72
2021/01/14 00:57:09;;;;;;;8.15;5.40;;;-1.00;99.90;;;;;;5011946;28;20022;-72
2021/01/14 00:59:36;;;;;;;13.40;7.20;;;-0.80;99.90;;;;;;5011048;28;20040;-73
2021/01/14 01:02:05;;;;;;;8.15;5.38;;;-0.80;99.90;;;;;;5012092;28;20029;-72
2021/01/14 01:04:31;;;;;;;7.35;4.65;;;-0.90;99.90;;;;;;5011172;28;20033;-73
2021/01/14 01:06:57;;;;;;;9.65;5.35;;;-0.80;99.90;;;;;;5011373;28;20128;-73
2021/01/14 01:09:23;;;;;;;10.50;6.15;;;-0.50;99.40;;;;;;5011005;28;20026;-72
2021/01/14 01:11:49;;;;;;;10.30;4.53;;;-0.50;99.60;;;;;;5010837;28;20077;-72
2021/01/14 01:14:15;;;;;;;9.05;3.60;;;-0.80;99.70;;;;;;5010220;28;20045;-73
2021/01/14 01:16:40;;;;;;;7.03;3.17;;;-0.80;99.70;;;;;;5011566;28;20049;-73
2021/01/14 01:19:06;;;;;;;6.68;3.10;;;-0.80;99.60;;;;;;5011372;28;20084;-72
2021/01/14 01:21:32;;;;;;;8.02;3.65;;;-0.70;99.60;;;;;;5011767;28;20026;-73
2021/01/14 01:23:58;;;;;;;10.25;5.43;;;-0.80;99.60;;;;;;5009938;28;20025;-73
2021/01/14 01:26:24;;;;;;;11.35;5.50;;;-0.90;99.70;;;;;;5011581;28;20029;-73
2021/01/14 01:28:49;;;;;;;7.80;4.97;;;-0.90;99.90;;;;;;5010229;28;20025;-73
2021/01/14 01:31:15;;;;;;;10.05;5.63;;;-1.00;99.90;;;;;;5011576;28;20133;-73
2021/01/14 01:33:43;;;;;;;10.88;4.88;;;-1.00;99.90;;;;;;5011492;28;20117;-72
2021/01/14 01:36:13;;;;;;;7.70;3.10;;;-0.90;99.90;;;;;;5011083;28;20034;-72
2021/01/14 01:38:38;;;;;;;7.95;3.80;;;-0.70;99.80;;;;;;5010533;28;20037;-72
2021/01/14 01:41:04;;;;;;;10.85;5.07;;;-0.80;99.50;;;;;;5004627;28;20029;-72
2021/01/14 01:43:30;;;;;;;7.72;3.65;;;-0.80;99.50;;;;;;5010556;28;20045;-72
2021/01/14 01:45:57;;;;;;;13.10;4.88;;;-0.80;99.90;;;;;;5010213;28;20048;-73
2021/01/14 01:48:23;;;;;;;11.17;5.07;;;-0.70;99.50;;;;;;5009500;28;20030;-73
2021/01/14 01:50:51;;;;;;;8.15;3.92;;;-0.60;99.30;;;;;;5004247;28;20393;-72
2021/01/14 01:53:17;;;;;;;6.07;2.95;;;-0.60;99.30;;;;;;5004230;28;20392;-72
2021/01/14 01:55:46;;;;;;;8.23;3.97;;;-0.80;99.80;;;;;;5010780;28;20026;-73
2021/01/14 01:58:13;;;;;;;6.30;3.23;;;-0.70;99.60;;;;;;5010431;28;20515;-72
2021/01/14 02:00:39;;;;;;;7.73;4.33;;;-0.90;99.90;;;;;;5010460;28;20034;-73
2021/01/14 02:03:06;;;;;;;6.22;3.50;;;-0.90;99.90;;;;;;5010042;28;20033;-73
2021/01/14 02:05:35;;;;;;;9.02;3.88;;;-1.10;99.90;;;;;;5014674;28;20037;-72
2021/01/14 02:08:33;;;;;;;9.40;3.72;;;-0.70;99.90;;;;;;5014622;28;20037;-72
2021/01/14 02:11:05;;;;;;;7.45;4.25;;;-0.70;99.70;;;;;;5013786;28;20026;-73
2021/01/14 02:14:00;;;;;;;12.60;5.80;;;-0.80;99.70;;;;;;5014708;28;20030;-72
2021/01/14 02:16:26;;;;;;;8.23;4.30;;;-0.90;99.90;;;;;;5014164;28;20107;-73
2021/01/14 02:18:57;;;;;;;12.40;4.63;;;-1.10;99.90;;;;;;5014746;28;20113;-73
2021/01/14 02:21:25;;;;;;;11.50;4.87;;;-1.00;99.90;;;;;;5013746;28;20489;-73
2021/01/14 02:23:56;;;;;;;11.63;4.47;;;-1.00;99.90;;;;;;5014471;28;20104;-73
2021/01/14 02:26:24;;;;;;;7.07;4.07;;;-1.00;99.90;;;;;;5013507;28;20022;-73
2021/01/14 02:28:52;;;;;;;7.53;3.53;;;-0.70;99.90;;;;;;5014761;28;20026;-73
2021/01/14 02:31:19;;;;;;;8.37;3.33;;;-0.60;99.90;;;;;;5013782;28;20049;-73
2021/01/14 02:33:48;;;;;;;10.05;3.50;;;-0.30;99.90;;;;;;4994876;28;20480;-73
2021/01/14 02:36:14;;;;;;;6.00;3.08;;;-0.40;99.90;;;;;;5006760;28;20394;-73
2021/01/14 02:38:40;;;;;;;10.52;3.83;;;-0.50;99.90;;;;;;5014029;28;20026;-73
2021/01/14 02:41:06;;;;;;;7.70;4.32;;;-0.60;99.90;;;;;;5012652;28;20030;-73
2021/01/14 02:43:32;;;;;;;6.78;3.30;;;-0.70;99.90;;;;;;5013338;28;20028;-73
2021/01/14 02:45:58;;;;;;;8.68;5.15;;;-0.80;99.90;;;;;;5013580;28;20033;-74
2021/01/14 02:48:45;;;;;;;11.63;5.18;;;-0.90;99.90;;;;;;5014300;28;20097;-73
2021/01/14 02:51:21;;;;;;;6.40;3.95;;;-0.90;99.90;;;;;;5006819;28;20025;-73
2021/01/14 02:53:51;;;;;;;7.73;3.73;;;-0.80;99.90;;;;;;5013464;28;20040;-73
2021/01/14 02:56:17;;;;;;;7.35;3.03;;;-0.80;99.90;;;;;;5013161;28;20034;-73
2021/01/14 02:58:44;;;;;;;7.53;4.13;;;-0.40;99.90;;;;;;5013355;28;20053;-73
2021/01/14 03:01:10;;;;;;;7.05;3.53;;;-0.10;99.90;;;;;;5013752;28;20571;-73
2021/01/14 03:03:35;;;;;;;6.63;2.87;;;0.00;99.90;;;;;;5013103;28;20030;-73
2021/01/14 03:06:01;;;;;;;6.18;3.47;;;-0.10;99.90;;;;;;5012930;28;20033;-73
2021/01/14 03:08:27;;;;;;;6.20;3.38;;;-0.20;99.90;;;;;;5013445;28;20076;-73
2021/01/14 03:10:53;;;;;;;8.93;3.72;;;-0.40;99.90;;;;;;5012801;28;20038;-73
2021/01/14 03:13:18;;;;;;;6.85;3.45;;;-0.30;99.90;;;;;;5013388;28;20030;-73
2021/01/14 03:15:44;;;;;;;7.18;3.63;;;-0.20;99.90;;;;;;5011883;28;20111;-73
2021/01/14 03:18:11;;;;;;;5.80;3.53;;;0.20;99.90;;;;;;5012894;28;20030;-73
2021/01/14 03:20:37;;;;;;;6.43;3.20;;;0.40;99.90;;;;;;5012984;28;20033;-73
2021/01/14 03:23:02;;;;;;;9.05;3.67;;;0.10;99.90;;;;;;5013912;28;20030;-73
2021/01/14 03:25:28;;;;;;;6.35;3.65;;;-0.10;99.90;;;;;;5012563;28;20021;-73
2021/01/14 03:27:54;;;;;;;4.70;2.50;;;-0.20;99.90;;;;;;5012274;28;20037;-73
2021/01/14 03:30:20;;;;;;;5.97;2.88;;;-0.30;99.90;;;;;;5013169;28;20053;-73
2021/01/14 03:32:46;;;;;;;4.18;2.53;;;-0.30;99.90;;;;;;5009669;28;20095;-73
2021/01/14 03:35:12;;;;;;;5.82;2.78;;;0.20;99.90;;;;;;5004497;28;20041;-73
2021/01/14 03:37:39;;;;;;;8.48;3.78;;;0.00;99.90;;;;;;5012605;28;20380;-73
2021/01/14 03:40:06;;;;;;;8.73;3.80;;;-0.20;99.90;;;;;;5012993;28;20109;-73
2021/01/14 03:42:32;;;;;;;7.25;3.58;;;-0.30;99.90;;;;;;5011559;28;20034;-73
2021/01/14 03:44:58;;;;;;;7.13;4.00;;;-0.40;99.90;;;;;;5012705;28;20026;-73
2021/01/14 03:47:27;;;;;;;7.25;3.25;;;-0.50;99.90;;;;;;5013218;28;20022;-73
2021/01/14 03:49:52;;;;;;;4.53;2.33;;;-0.60;99.90;;;;;;5012474;28;20033;-73
2021/01/14 03:52:18;;;;;;;5.38;3.05;;;-0.60;99.90;;;;;;4999495;28;20506;-73
2021/01/14 03:54:47;;;;;;;6.40;3.50;;;-0.50;99.90;;;;;;5012634;28;20029;-73
2021/01/14 03:57:13;;;;;;;9.20;4.18;;;-0.50;99.90;;;;;;5012562;28;20476;-73
2021/01/14 03:59:39;;;;;;;9.93;5.07;;;-0.50;99.90;;;;;;5012737;28;20113;-73
2021/01/14 04:02:09;;;;;;;6.95;2.88;;;-0.40;99.90;;;;;;5011073;28;20109;-73
2021/01/14 04:04:36;;;;;;;7.20;3.42;;;-0.50;99.90;;;;;;5000880;28;20112;-73
2021/01/14 04:07:02;;;;;;;8.95;4.22;;;-0.50;99.90;;;;;;5004899;28;20048;-74
2021/01/14 04:09:28;;;;;;;9.90;4.25;;;-0.50;99.90;;;;;;5004677;28;20105;-74
2021/01/14 04:11:54;;;;;;;8.93;5.13;;;0.00;99.90;;;;;;5004088;28;20117;-73
2021/01/14 04:14:20;;;;;;;7.80;3.33;;;0.10;99.90;;;;;;5005717;28;20088;-74
2021/01/14 04:16:50;;;;;;;11.82;4.68;;;0.00;99.90;;;;;;5005149;28;20061;-73
2021/01/14 04:19:16;;;;;;;9.05;4.22;;;-0.10;99.90;;;;;;5005079;28;20021;-74
2021/01/14 04:21:42;;;;;;;7.10;4.47;;;-0.10;99.90;;;;;;5003955;28;20377;-73
2021/01/14 04:24:09;;;;;;;8.23;3.97;;;-0.10;99.90;;;;;;5003716;28;20448;-73
2021/01/14 04:26:35;;;;;;;7.20;3.63;;;-0.20;99.90;;;;;;5004239;28;20037;-73
2021/01/14 04:29:00;;;;;;;7.25;3.70;;;-0.30;99.90;;;;;;5004661;28;20037;-73
2021/01/14 04:31:26;;;;;;;6.60;3.50;;;-0.40;99.90;;;;;;5004206;28;20042;-74
2021/01/14 04:33:52;;;;;;;5.07;3.08;;;-0.30;99.90;;;;;;5004061;28;20046;-73
2021/01/14 04:36:18;;;;;;;5.78;3.00;;;-0.20;99.90;;;;;;5003951;28;20377;-73
2021/01/14 04:38:44;;;;;;;6.32;2.95;;;0.10;99.90;;;;;;5005001;28;20033;-73
2021/01/14 04:41:10;;;;;;;4.82;3.08;;;0.00;99.90;;;;;;5004096;28;20037;-74
2021/01/14 04:43:36;;;;;;;5.47;2.95;;;0.10;99.90;;;;;;5004532;28;20537;-73
2021/01/14 04:46:08;;;;;;;6.93;2.88;;;0.20;99.90;;;;;;5003861;28;20030;-73
2021/01/14 04:48:51;;;;;;;5.30;3.40;;;0.10;99.90;;;;;;5005073;28;20026;-73
2021/01/14 04:51:20;;;;;;;9.30;4.95;;;0.00;99.90;;;;;;4998790;28;20021;-73
2021/01/14 04:53:50;;;;;;;5.32;2.90;;;-0.30;99.90;;;;;;5003729;28;20048;-74
2021/01/14 04:56:18;;;;;;;5.30;2.90;;;-0.50;99.90;;;;;;5003631;28;20380;-73
2021/01/14 04:58:49;;;;;;;5.07;2.67;;;-0.40;99.90;;;;;;5004276;28;20377;-74
2021/01/14 05:01:23;;;;;;;5.03;2.50;;;0.00;99.90;;;;;;5003449;28;20104;-74
2021/01/14 05:03:53;;;;;;;4.82;2.50;;;-0.10;99.90;;;;;;5003775;28;20365;-73
2021/01/14 05:06:23;;;;;;;5.15;2.65;;;0.10;99.90;;;;;;5002569;28;20029;-73
2021/01/14 05:08:53;;;;;;;8.82;3.75;;;0.10;99.90;;;;;;5003701;28;20033;-73
2021/01/14 05:11:18;;;;;;;4.72;3.15;;;0.20;99.90;;;;;;5003714;28;20036;-73
2021/01/14 05:13:45;;;;;;;3.97;2.28;;;0.10;99.90;;;;;;5003433;28;20021;-74
2021/01/14 05:16:12;;;;;;;5.65;2.25;;;0.10;99.90;;;;;;5003999;28;20121;-73
2021/01/14 05:18:38;;;;;;;3.97;1.90;;;0.00;99.90;;;;;;5003808;28;20407;-73
2021/01/14 05:21:03;;;;;;;5.63;2.53;;;0.00;99.90;;;;;;5003607;28;20032;-73
2021/01/14 05:23:31;;;;;;;4.72;2.35;;;0.10;99.90;;;;;;5002093;28;20030;-74
2021/01/14 05:25:58;;;;;;;5.60;2.83;;;0.00;99.90;;;;;;4985134;28;20692;-74
2021/01/14 05:28:25;;;;;;;7.20;3.40;;;0.00;99.90;;;;;;5001468;28;20978;-74
2021/01/14 05:30:52;;;;;;;6.47;2.75;;;0.10;99.90;;;;;;5003111;28;20050;-74
2021/01/14 05:33:22;;;;;;;4.97;2.50;;;0.00;99.90;;;;;;5003402;28;20140;-74
2021/01/14 05:35:50;;;;;;;5.20;2.47;;;0.00;99.90;;;;;;5002716;28;20656;-74
2021/01/14 05:38:25;;;;;;;5.15;2.70;;;0.00;99.90;;;;;;5002905;28;20092;-74
2021/01/14 05:41:11;;;;;;;5.07;2.63;;;0.00;99.90;;;;;;5003256;28;20061;-74
2021/01/14 05:43:56;;;;;;;4.85;2.33;;;-0.10;99.90;;;;;;5003383;28;20461;-74
2021/01/14 05:46:33;;;;;;;5.63;2.55;;;-0.10;99.90;;;;;;5004113;28;20499;-74
2021/01/14 05:49:01;;;;;;;5.22;2.95;;;-0.20;99.90;;;;;;5002993;28;20038;-75
2021/01/14 05:51:32;;;;;;;5.88;2.67;;;-0.20;99.90;;;;;;5003705;28;20068;-74
2021/01/14 05:54:08;;;;;;;4.20;2.05;;;-0.10;99.90;;;;;;5002745;28;20499;-74
2021/01/14 05:56:41;;;;;;;5.05;2.13;;;-0.10;99.90;;;;;;5002427;28;20037;-74
2021/01/14 05:59:09;;;;;;;4.95;2.80;;;-0.30;99.90;;;;;;5003043;28;20053;-74
2021/01/14 06:01:51;;;;;;;6.13;2.92;;;-0.10;99.90;;;;;;5003315;28;20018;-74
2021/01/14 06:04:21;;;;;;;5.28;2.78;;;-0.10;99.90;;;;;;5000711;28;20062;-74
2021/01/14 06:06:49;;;;;;;5.43;3.28;;;-0.20;99.90;;;;;;4986584;28;20030;-74
2021/01/14 06:09:16;;;;;;;5.63;3.65;;;-0.20;99.90;;;;;;5002499;28;20034;-74
2021/01/14 06:11:43;;;;;;;5.50;2.92;;;-0.20;99.90;;;;;;5003593;28;20041;-74
2021/01/14 06:14:24;;;;;;;6.70;3.22;;;-0.20;99.90;;;;;;5003300;28;20026;-74
2021/01/14 06:16:51;;;;;;;4.63;2.90;;;-0.10;99.90;;;;;;5006737;28;20033;-75
2021/01/14 06:19:17;;;;;;;5.88;2.85;;;0.00;99.90;;;;;;5004028;28;20034;-75
2021/01/14 06:21:47;;;;;;;5.55;2.92;;;0.00;99.90;;;;;;4987761;28;20425;-72
2021/01/14 06:24:25;;;;;;;4.70;2.60;;;0.00;99.90;;;;;;5001234;28;20384;-75
2021/01/14 06:26:53;;;;;;;5.53;2.95;;;0.30;99.90;;;;;;5003217;28;20026;-74
2021/01/14 06:29:20;;;;;;;5.85;2.45;;;0.20;99.90;;;;;;5002968;28;20026;-75
2021/01/14 06:31:46;;;;;;;5.35;3.13;;;0.30;99.90;;;;;;5002164;28;20074;-75
2021/01/14 06:34:18;;;;;;;5.32;2.95;;;0.20;99.90;;;;;;5003326;28;20044;-74
2021/01/14 06:36:46;;;;;;;6.97;3.60;;;0.10;99.90;;;;;;5002723;28;20506;-75
2021/01/14 06:39:15;;;;;;;4.95;2.83;;;-0.10;99.90;;;;;;5003163;28;20125;-75
2021/01/14 06:41:42;;;;;;;6.07;2.88;;;-0.20;99.90;;;;;;5003373;28;20623;-75
2021/01/14 06:44:10;;;;;;;6.13;3.30;;;-0.40;99.90;;;;;;5003709;28;20109;-74
2021/01/14 06:46:36;;;;;;;7.93;3.95;;;-0.20;99.90;;;;;;5001595;28;20061;-75
2021/01/14 06:49:11;;;;;;;7.32;4.00;;;0.10;99.90;;;;;;5002881;28;20108;-75
2021/01/14 06:51:42;;;;;;;;;;;0.10;99.90;;;;;;5005807;28;20037;-75
2021/01/14 06:54:11;;;;;;;6.90;4.20;;;-0.10;99.90;;;;;;5006617;28;19905;-74
2021/01/14 06:56:58;;;;;;;6.35;3.47;;;-0.10;99.90;;;;;;5006921;28;20029;-74
2021/01/14 06:59:26;;;;;;;6.20;3.22;;;-0.10;99.90;;;;;;5006936;28;20068;-75
2021/01/14 07:02:23;;;;;;;7.35;4.00;;;-0.10;99.90;;;;;;5008437;28;20028;-74
2021/01/14 07:05:00;;;;;;;4.93;2.53;;;-0.10;99.90;;;;;;5009544;28;20148;-75
2021/01/14 07:07:26;;;;;;;6.60;2.60;;;-0.10;99.90;;;;;;5005967;28;20491;-76
2021/01/14 07:10:05;;;;;;;7.15;2.55;;;0.00;99.90;;;;;;5037267;28;20034;-76
2021/01/14 07:12:39;;;;;;;6.47;2.42;;;0.10;99.90;;;;;;5005980;28;20077;-76
2021/01/14 07:15:07;;;;;;;4.97;2.97;;;0.40;99.90;;;;;;5006409;28;20135;-77
2021/01/14 07:17:34;;;;;;;7.97;4.03;;;0.40;99.90;;;;;;5005657;28;20492;-76
2021/01/14 07:20:02;;;;;;;8.30;4.28;;;0.30;99.90;;;;;;5004587;28;20022;-75
2021/01/14 07:22:30;;;;;;;6.00;3.50;;;0.30;99.90;;;;;;4986250;28;20030;-76
2021/01/14 07:25:00;;;;;;;8.80;4.20;;;0.40;99.90;;;;;;4996706;28;20057;-76
2021/01/14 07:27:27;;;;;;;8.13;4.05;;;0.20;99.90;;;;;;5005552;28;20088;-76
2021/01/14 07:29:56;;;;;;;11.30;3.85;;;0.20;99.90;;;;;;5003746;28;20496;-76
2021/01/14 07:32:51;;;;;;;6.72;3.60;;;0.30;99.90;;;;;;5004791;28;20490;-76
2021/01/14 07:35:42;;;;;;;14.00;7.22;;;0.40;99.90;;;;;;5006279;28;20025;-77
2021/01/14 07:38:12;;;;;;;10.77;6.05;;;0.40;99.90;;;;;;5005445;28;20026;-77
2021/01/14 07:40:39;;;;;;;11.43;6.53;;;0.30;99.90;;;;;;5004237;28;20775;-76
2021/01/14 07:43:07;;;;;;;9.07;5.13;;;0.30;99.90;;;;;;5004360;28;20392;-75
2021/01/14 07:45:34;;;;;;;8.45;4.65;;;0.30;99.90;;;;;;5005405;28;20033;-76
2021/01/14 07:48:19;;;;;;;10.52;7.35;;;0.50;99.90;;;;;;5002203;28;20484;-76
2021/01/14 07:50:49;;;;;;;;;;;0.50;99.90;;;;;;5001474;28;20095;-76
2021/01/14 07:53:15;;;;;;;18.48;11.55;;;0.60;99.90;;;;;;5004364;28;19924;-75
2021/01/14 07:55:40;;;;;;;11.60;6.50;;;0.60;99.90;;;;;;5004920;28;20044;-76
2021/01/14 07:58:13;;;;;;;12.55;5.45;;;0.40;99.90;;;;;;5004987;28;20018;-76
2021/01/14 08:00:41;;;;;;;8.48;4.70;;;0.40;99.90;;;;;;5004780;28;20022;-77
2021/01/14 08:03:12;;;;;;;10.13;5.55;;;0.60;99.90;;;;;;5003755;28;20022;-76
2021/01/14 08:05:57;;;;;;;10.23;6.20;;;0.60;99.90;;;;;;5005123;28;20491;-76
2021/01/14 08:08:27;;;;;;;9.68;4.90;;;0.70;99.90;;;;;;5004882;28;20025;-73
2021/01/14 08:11:13;;;;;;;9.63;4.95;;;0.70;99.90;;;;;;5004258;28;20026;-73
2021/01/14 08:14:01;;;;;;;7.65;4.90;;;0.90;99.90;;;;;;5004722;28;20116;-73
2021/01/14 08:16:37;;;;;;;8.70;4.53;;;1.00;99.90;;;;;;5002017;28;20032;-73
2021/01/14 08:19:42;;;;;;;8.82;5.55;;;1.10;99.90;;;;;;5003000;28;20026;-73
2021/01/14 08:22:13;;;;;;;14.25;6.88;;;1.10;99.90;;;;;;4992109;28;20046;-73
2021/01/14 08:24:45;;;;;;;29.60;13.13;;;1.10;99.90;;;;;;4984706;28;20397;-73
2021/01/14 08:27:22;;;;;;;22.08;12.02;;;1.10;99.90;;;;;;4985036;28;20532;-73
2021/01/14 08:29:57;;;;;;;16.45;11.32;;;1.20;99.90;;;;;;4999695;28;20037;-74
2021/01/14 08:32:55;;;;;;;21.58;9.45;;;1.20;99.90;;;;;;5004662;28;20053;-72
2021/01/14 08:35:27;;;;;;;15.50;8.65;;;1.30;99.90;;;;;;5002730;28;20042;-71
2021/01/14 08:37:56;;;;;;;9.10;4.07;;;1.40;99.90;;;;;;5004229;28;20053;-72
2021/01/14 08:40:22;;;;;;;8.15;3.50;;;1.60;99.90;;;;;;4986474;28;20654;-71
2021/01/14 08:43:00;;;;;;;5.65;3.55;;;1.80;99.90;;;;;;4984451;28;20058;-71
2021/01/14 08:45:31;;;;;;;10.07;3.72;;;1.90;99.90;;;;;;4990749;28;20029;-71
2021/01/14 08:48:01;;;;;;;5.72;3.50;;;1.90;99.90;;;;;;5003398;28;20609;-71
2021/01/14 08:50:37;;;;;;;8.48;3.83;;;2.00;99.90;;;;;;5002985;28;20129;-71
2021/01/14 08:53:07;;;;;;;14.82;5.78;;;1.90;99.90;;;;;;5002647;28;20121;-71
2021/01/14 08:55:34;;;;;;;10.48;4.90;;;1.80;99.90;;;;;;5003507;28;20036;-70
2021/01/14 08:58:00;;;;;;;10.57;5.32;;;1.90;99.90;;;;;;5003254;28;20055;-70
2021/01/14 09:00:26;;;;;;;8.13;4.90;;;1.80;99.90;;;;;;5004347;28;20029;-70
2021/01/14 09:02:53;;;;;;;10.43;4.80;;;1.80;99.90;;;;;;5003697;28;20057;-71
2021/01/14 09:05:19;;;;;;;11.35;4.65;;;1.90;99.90;;;;;;5004577;28;20033;-73
2021/01/14 09:08:04;;;;;;;8.43;3.97;;;2.00;99.90;;;;;;5004376;28;20037;-71
2021/01/14 09:10:48;;;;;;;;;;;2.10;99.90;;;;;;5005446;28;20025;-70
2021/01/14 09:13:18;;;;;;;16.30;7.72;;;2.20;99.90;;;;;;5003011;28;19922;-70
2021/01/14 09:15:44;;;;;;;14.93;6.95;;;1.70;99.90;;;;;;5004168;28;20034;-70
2021/01/14 09:18:10;;;;;;;18.15;7.88;;;1.80;99.90;;;;;;5003666;28;20022;-71
2021/01/14 09:20:37;;;;;;;13.75;7.85;;;1.90;99.90;;;;;;4997560;28;20109;-70
2021/01/14 09:23:19;;;;;;;14.43;8.18;;;2.00;99.90;;;;;;4995695;28;20034;-70
2021/01/14 09:25:53;;;;;;;11.75;6.95;;;2.00;99.90;;;;;;5003363;28;20498;-71
2021/01/14 09:28:21;;;;;;;16.92;8.18;;;2.00;99.90;;;;;;5002915;28;20476;-70
2021/01/14 09:31:06;;;;;;;12.45;7.10;;;2.20;99.90;;;;;;5003364;28;20394;-71
2021/01/14 09:33:34;;;;;;;10.63;5.78;;;2.30;99.90;;;;;;5004003;28;20053;-70
2021/01/14 09:36:04;;;;;;;13.68;6.88;;;2.50;99.90;;;;;;5003546;28;20050;-71
2021/01/14 09:38:40;;;;;;;8.80;6.03;;;2.50;99.90;;;;;;5004065;28;20022;-72
2021/01/14 09:41:07;;;;;;;9.85;5.72;;;2.70;99.90;;;;;;5003712;28;20029;-70
2021/01/14 09:43:37;;;;;;;11.85;7.85;;;2.80;99.90;;;;;;5003579;28;20096;-70
2021/01/14 09:46:03;;;;;;;7.07;4.57;;;2.60;99.90;;;;;;5003150;28;20030;-70
2021/01/14 09:48:32;;;;;;;9.65;3.60;;;2.60;99.90;;;;;;5003914;28;20040;-71
2021/01/14 09:50:58;;;;;;;18.83;10.05;;;3.20;99.90;;;;;;5003071;28;20119;-70
2021/01/14 09:53:24;;;;;;;10.93;6.55;;;3.30;99.90;;;;;;5003266;28;20112;-70
2021/01/14 09:55:50;;;;;;;9.50;5.03;;;3.10;99.90;;;;;;5001802;28;20028;-70
2021/01/14 09:58:20;;;;;;;12.38;7.40;;;3.10;99.90;;;;;;5002319;28;20141;-70
2021/01/14 10:00:51;;;;;;;17.58;8.82;;;2.90;99.90;;;;;;5002816;28;20040;-70
2021/01/14 10:03:21;;;;;;;26.05;13.60;;;2.80;99.90;;;;;;5003868;28;20610;-70
2021/01/14 10:05:50;;;;;;;27.52;15.93;;;2.90;99.90;;;;;;5003459;28;20079;-71
2021/01/14 10:08:24;;;;;;;16.05;9.60;;;2.90;99.90;;;;;;5003756;28;20524;-72
2021/01/14 10:10:50;;;;;;;307.88;144.60;;;3.00;99.90;;;;;;5003209;28;20519;-71
2021/01/14 10:13:16;;;;;;;94.65;49.15;;;3.00;99.90;;;;;;5002098;28;20158;-71
2021/01/14 10:15:43;;;;;;;24.60;13.27;;;3.10;99.90;;;;;;5003177;28;20026;-71
2021/01/14 10:18:29;;;;;;;21.88;13.07;;;3.10;99.90;;;;;;5003012;28;20049;-71
2021/01/14 10:21:02;;;;;;;20.08;10.60;;;3.20;99.90;;;;;;4994722;28;20049;-71
2021/01/14 10:23:28;;;;;;;16.05;8.88;;;3.20;99.90;;;;;;4983996;28;20030;-70
2021/01/14 10:25:55;;;;;;;12.38;6.95;;;3.30;99.90;;;;;;4986841;28;20792;-71
2021/01/14 10:28:22;;;;;;;16.55;5.40;;;3.30;99.90;;;;;;5001309;28;20087;-70
2021/01/14 10:30:48;;;;;;;8.40;4.32;;;3.30;99.90;;;;;;5038622;28;20365;-71
2021/01/14 10:33:14;;;;;;;12.18;5.70;;;3.40;99.90;;;;;;5005560;28;20470;-71
2021/01/14 10:35:40;;;;;;;6.80;3.42;;;3.40;99.90;;;;;;5006990;28;20057;-70
2021/01/14 10:38:06;;;;;;;6.03;3.05;;;3.70;99.90;;;;;;5007290;28;20064;-70
2021/01/14 10:40:40;;;;;;;13.05;4.82;;;3.80;99.90;;;;;;5007314;28;20028;-71
2021/01/14 10:43:08;;;;;;;8.95;5.03;;;3.90;99.90;;;;;;5006581;28;20026;-71
2021/01/14 10:45:37;;;;;;;7.75;4.05;;;3.90;99.90;;;;;;4997223;28;20045;-72
2021/01/14 10:48:10;;;;;;;12.15;5.57;;;3.90;99.90;;;;;;5011161;28;20179;-70
2021/01/14 10:50:42;;;;;;;8.77;5.45;;;3.80;99.90;;;;;;5014322;28;20114;-71
2021/01/14 10:53:08;;;;;;;10.35;5.60;;;3.70;99.90;;;;;;5006880;28;20404;-71
2021/01/14 10:55:34;;;;;;;12.13;5.57;;;3.80;99.90;;;;;;5006116;28;20038;-71
2021/01/14 10:58:02;;;;;;;11.20;4.70;;;3.80;99.90;;;;;;5006781;28;20022;-70
2021/01/14 11:00:40;;;;;;;12.30;5.20;;;3.80;99.90;;;;;;5004908;28;20100;-71
2021/01/14 11:03:14;;;;;;;8.57;5.35;;;3.80;99.90;;;;;;5004389;28;20026;-70
2021/01/14 11:05:48;;;;;;;11.52;5.43;;;4.00;99.90;;;;;;5004804;28;20091;-71
2021/01/14 11:08:25;;;;;;;9.43;5.53;;;4.00;99.90;;;;;;5006262;28;20104;-70
2021/01/14 11:11:07;;;;;;;12.50;4.53;;;4.10;99.90;;;;;;5038069;28;20030;-71
2021/01/14 11:13:37;;;;;;;12.45;6.00;;;3.90;99.90;;;;;;5006551;28;20091;-71
2021/01/14 11:16:04;;;;;;;9.65;5.03;;;4.00;99.90;;;;;;5006656;28;20033;-71
2021/01/14 11:18:31;;;;;;;8.85;5.05;;;4.00;99.90;;;;;;5005952;28;20043;-70
2021/01/14 11:20:56;;;;;;;10.15;4.88;;;4.00;99.70;;;;;;4996694;28;20117;-71
2021/01/14 11:23:22;;;;;;;9.75;5.50;;;4.10;99.90;;;;;;4986910;28;20112;-71
2021/01/14 11:25:48;;;;;;;10.43;5.63;;;4.20;99.70;;;;;;5005634;28;20101;-71
2021/01/14 11:28:14;;;;;;;9.48;5.18;;;4.40;99.70;;;;;;5006356;28;20018;-71
2021/01/14 11:30:39;;;;;;;8.20;5.20;;;4.20;99.80;;;;;;5005982;28;20054;-71
2021/01/14 11:33:05;;;;;;;8.05;5.25;;;4.30;99.80;;;;;;5006343;28;20038;-71
2021/01/14 11:35:31;;;;;;;8.35;5.28;;;4.50;99.70;;;;;;5006095;28;20041;-70
2021/01/14 11:37:57;;;;;;;11.63;5.65;;;4.40;99.80;;;;;;5005248;28;20104;-71
2021/01/14 11:40:23;;;;;;;12.60;5.25;;;4.50;99.90;;;;;;5005859;28;20034;-71
2021/01/14 11:42:48;;;;;;;10.45;5.85;;;4.70;99.90;;;;;;5005405;28;20021;-71
2021/01/14 11:45:14;;;;;;;9.00;5.70;;;4.80;99.60;;;;;;5006324;28;20626;-71
2021/01/14 11:47:40;;;;;;;8.38;4.70;;;4.50;99.70;;;;;;5037141;28;20029;-71
2021/01/14 11:50:06;;;;;;;47.58;26.48;;;4.60;99.90;;;;;;5005733;28;20160;-71
2021/01/14 11:52:32;;;;;;;17.70;9.88;;;4.80;99.60;;;;;;5005263;28;20617;-71
2021/01/14 11:54:57;;;;;;;6.45;4.70;;;5.00;99.80;;;;;;5005840;28;20033;-71
2021/01/14 11:57:27;;;;;;;5.93;3.92;;;5.30;98.80;;;;;;5004731;28;20111;-71
2021/01/14 11:59:53;;;;;;;7.30;4.13;;;5.40;98.60;;;;;;5005571;28;20643;-71
2021/01/14 12:02:19;;;;;;;6.40;3.58;;;5.10;99.00;;;;;;5005392;28;20109;-71
2021/01/14 12:04:45;;;;;;;5.80;4.25;;;5.40;98.80;;;;;;5005493;28;20481;-71
2021/01/14 12:07:11;;;;;;;6.20;3.85;;;5.60;98.40;;;;;;5004888;28;20022;-71
2021/01/14 12:09:36;;;;;;;6.78;5.03;;;5.60;98.20;;;;;;5005022;28;20034;-71
2021/01/14 12:12:02;;;;;;;6.72;5.43;;;5.50;98.30;;;;;;5005273;28;20042;-71
2021/01/14 12:14:28;;;;;;;7.70;5.15;;;5.70;98.10;;;;;;5004926;28;20026;-71
2021/01/14 12:16:53;;;;;;;4.90;2.58;;;5.70;97.60;;;;;;5004917;28;20756;-71
2021/01/14 12:19:19;;;;;;;5.85;3.20;;;5.70;97.90;;;;;;5005056;28;20041;-69
2021/01/14 12:21:45;;;;;;;5.72;2.75;;;5.70;97.60;;;;;;4989823;28;20030;-71
2021/01/14 12:24:11;;;;;;;5.95;3.80;;;5.80;97.40;;;;;;4985351;28;20465;-73
2021/01/14 12:26:36;;;;;;;5.30;3.28;;;6.10;97.40;;;;;;4985643;28;20026;-71
2021/01/14 12:29:02;;;;;;;7.10;4.53;;;6.10;97.30;;;;;;4999919;28;20018;-70
2021/01/14 12:31:34;;;;;;;6.47;3.72;;;6.00;97.30;;;;;;5004412;28;20038;-71
2021/01/14 12:33:59;;;;;;;6.85;4.45;;;5.80;97.60;;;;;;5004811;28;20600;-71
2021/01/14 12:36:25;;;;;;;6.60;3.35;;;5.80;97.70;;;;;;5004869;28;20037;-71
2021/01/14 12:38:51;;;;;;;4.68;2.42;;;5.90;97.00;;;;;;5004117;28;20034;-71
2021/01/14 12:41:16;;;;;;;5.68;2.75;;;5.90;96.80;;;;;;5004803;28;20177;-72
2021/01/14 12:43:42;;;;;;;5.95;3.00;;;6.10;97.30;;;;;;5004668;28;20645;-71
2021/01/14 12:46:08;;;;;;;4.90;2.28;;;6.10;96.70;;;;;;4997998;28;20022;-71
2021/01/14 12:48:35;;;;;;;6.82;3.35;;;6.00;96.70;;;;;;4991469;28;20057;-71
2021/01/14 12:51:01;;;;;;;6.32;2.83;;;5.80;97.70;;;;;;5004747;28;20034;-71
2021/01/14 12:53:26;;;;;;;6.80;3.47;;;5.70;97.40;;;;;;5004998;28;20091;-72
2021/01/14 12:55:52;;;;;;;8.07;4.40;;;5.70;97.80;;;;;;5003940;28;20028;-72
2021/01/14 12:58:18;;;;;;;7.75;4.63;;;5.70;97.90;;;;;;5004320;28;20033;-74
2021/01/14 13:00:45;;;;;;;4.68;2.53;;;5.60;97.90;;;;;;5004276;28;20026;-72
2021/01/14 13:03:11;;;;;;;4.63;2.70;;;5.90;96.70;;;;;;5004598;28;20101;-71